Time;durP1;ratioP1;P1;durP2;ratioP2;P2;SDS_P1;SDS_P2;PMS_P1;PMS_P2;Temp;Humidity;BMP_temperature;BMP_pressure;BME280_temperature;BME280_humidity;BME280_pressure;Samples;Min_cycle;Max_cycle;Signal;HPM_P1;HPM_P2
2022/01/17 00:00:14;;;;;;;8.02;5.20;;;;;;;21.69;25.28;100836.47;5130497;28;20057;-63
2022/01/17 00:02:41;;;;;;;6.63;4.93;;;;;;;22.30;24.54;100832.09;5130445;28;20499;-63
2022/01/17 00:05:08;;;;;;;6.60;4.82;;;;;;;22.76;24.18;100839.06;5130075;27;20046;-63
2022/01/17 00:07:34;;;;;;;6.25;5.07;;;;;;;23.18;23.57;100841.50;5129942;28;20051;-63
2022/01/17 00:10:00;;;;;;;6.85;5.22;;;;;;;23.59;23.14;100849.41;5130207;28;21376;-63
2022/01/17 00:12:29;;;;;;;6.93;5.22;;;;;;;23.87;22.82;100848.53;5130212;28;20572;-63
2022/01/17 00:14:56;;;;;;;6.55;5.35;;;;;;;24.13;22.49;100851.56;5130390;28;20518;-63
2022/01/17 00:17:30;;;;;;;6.05;5.07;;;;;;;24.44;22.28;100858.31;5130353;28;20043;-63
2022/01/17 00:19:56;;;;;;;6.22;5.18;;;;;;;24.36;22.70;100859.31;5130336;28;20404;-63
2022/01/17 00:22:23;;;;;;;4.93;4.18;;;;;;;24.00;22.92;100858.44;5126282;28;20047;-63
2022/01/17 00:24:50;;;;;;;5.68;4.35;;;;;;;23.65;23.07;100854.72;5129995;28;20047;-63
2022/01/17 00:27:16;;;;;;;5.88;4.50;;;;;;;23.30;23.62;100859.00;5129978;28;20047;-64
2022/01/17 00:29:42;;;;;;;5.57;4.28;;;;;;;23.00;23.79;100847.41;5129951;28;20043;-63
2022/01/17 00:32:08;;;;;;;5.40;4.45;;;;;;;22.74;24.05;100850.59;5125975;28;20380;-63
2022/01/17 00:34:34;;;;;;;5.50;4.45;;;;;;;22.52;24.10;100863.06;5129961;28;20051;-63
2022/01/17 00:36:59;;;;;;;6.80;5.05;;;;;;;22.33;24.47;100862.03;5129768;28;20050;-63
2022/01/17 00:39:25;;;;;;;6.35;4.95;;;;;;;22.16;24.60;100868.69;5129882;28;20432;-63
2022/01/17 00:41:51;;;;;;;6.25;4.38;;;;;;;21.99;24.80;100862.13;5129843;28;20492;-63
2022/01/17 00:44:21;;;;;;;5.55;4.47;;;;;;;21.87;25.29;100864.94;5129559;28;20050;-63
2022/01/17 00:46:47;;;;;;;5.97;4.75;;;;;;;21.75;25.33;100876.03;5129778;28;20047;-63
2022/01/17 00:49:13;;;;;;;4.95;4.13;;;;;;;21.65;25.14;100871.75;5129684;28;20035;-63
2022/01/17 00:51:38;;;;;;;6.30;4.97;;;;;;;21.57;25.21;100871.81;5129650;28;20050;-63
2022/01/17 00:54:04;;;;;;;5.68;4.70;;;;;;;21.49;25.38;100870.75;5129344;28;20039;-60
2022/01/17 00:56:29;;;;;;;5.95;4.75;;;;;;;21.41;25.55;100880.03;5129648;28;20038;-58
2022/01/17 00:58:55;;;;;;;5.30;4.30;;;;;;;21.35;25.58;100884.97;5129509;28;20047;-58
2022/01/17 01:01:20;;;;;;;5.45;4.38;;;;;;;21.30;25.79;100881.63;5129567;28;20039;-59
2022/01/17 01:03:46;;;;;;;5.55;4.47;;;;;;;21.24;25.67;100885.75;5129493;28;20032;-59
2022/01/17 01:06:11;;;;;;;5.97;4.60;;;;;;;21.19;25.65;100878.41;5129258;28;20035;-59
2022/01/17 01:08:37;;;;;;;5.90;4.50;;;;;;;21.12;25.83;100886.50;5129689;28;20089;-59
2022/01/17 01:11:02;;;;;;;6.40;4.90;;;;;;;21.10;26.03;100888.81;5129684;28;20411;-59
2022/01/17 01:13:30;;;;;;;5.80;4.70;;;;;;;21.06;26.10;100891.44;5129582;28;20407;-63
2022/01/17 01:29:12;;;;;;;5.72;4.50;;;;;;;20.85;26.26;100896.19;5112317;28;20204;-59
2022/01/17 01:31:44;;;;;;;6.18;4.88;;;;;;;20.85;26.18;100896.19;5112268;28;20511;-59
2022/01/17 01:34:11;;;;;;;5.97;4.75;;;;;;;20.82;26.26;100903.28;5112088;28;20086;-59
2022/01/17 01:36:36;;;;;;;5.00;4.10;;;;;;;20.79;26.28;100909.53;5112115;28;20051;-59
2022/01/17 01:39:05;;;;;;;5.43;4.00;;;;;;;20.79;26.31;100915.09;5112069;28;20044;-60
2022/01/17 01:41:36;;;;;;;5.78;4.28;;;;;;;20.76;26.28;100909.38;5112248;28;20055;-59
2022/01/17 01:44:03;;;;;;;5.90;4.45;;;;;;;20.75;26.15;100903.00;5112072;28;20126;-60
2022/01/17 01:46:29;;;;;;;5.22;4.38;;;;;;;20.73;26.21;100904.50;5112058;28;20046;-60
2022/01/17 01:48:54;;;;;;;5.50;4.20;;;;;;;20.73;26.25;100907.28;5111846;28;20047;-60
2022/01/17 01:51:20;;;;;;;4.90;4.00;;;;;;;20.71;26.42;100907.59;5112000;28;20043;-57
2022/01/17 01:53:46;;;;;;;5.70;4.25;;;;;;;20.70;26.43;100907.94;5111634;28;20483;-57
2022/01/17 01:56:11;;;;;;;5.43;4.07;;;;;;;20.68;26.43;100896.34;5111799;28;20559;-57
2022/01/17 01:58:39;;;;;;;5.55;4.35;;;;;;;20.68;26.53;100896.34;5111800;28;20238;-60
2022/01/17 02:01:04;;;;;;;5.72;4.28;;;;;;;20.68;26.39;100904.69;5111879;28;20042;-60
2022/01/17 02:03:30;;;;;;;5.18;4.18;;;;;;;20.66;26.39;100899.47;5111370;28;20118;-60
2022/01/17 02:05:55;;;;;;;5.50;4.22;;;;;;;20.64;26.44;100893.41;5111577;28;20044;-60
2022/01/17 02:08:21;;;;;;;5.28;3.95;;;;;;;20.64;26.52;100890.63;5111516;28;20054;-60
2022/01/17 02:10:46;;;;;;;5.57;4.25;;;;;;;20.63;26.42;100900.13;5111631;28;20047;-60
2022/01/17 02:13:12;;;;;;;5.68;4.15;;;;;;;20.63;26.41;100897.34;5091992;28;20158;-60
2022/01/17 02:15:38;;;;;;;5.65;4.63;;;;;;;20.61;26.41;100899.66;5111607;28;20501;-59
2022/01/17 02:18:07;;;;;;;5.15;4.13;;;;;;;20.61;26.51;100896.88;5111366;28;20081;-60
2022/01/17 02:20:45;;;;;;;5.43;4.30;;;;;;;20.60;26.55;100907.19;5111435;28;20499;-60
2022/01/17 02:23:13;;;;;;;4.78;3.63;;;;;;;20.60;26.57;100900.81;5111420;28;20426;-60
2022/01/17 02:25:39;;;;;;;5.75;4.07;;;;;;;20.59;26.57;100907.53;5114225;28;20410;-60
2022/01/17 02:28:04;;;;;;;5.28;4.22;;;;;;;20.56;26.52;100917.34;5131520;27;20040;-60
2022/01/17 02:30:32;;;;;;;5.25;4.00;;;;;;;20.57;26.40;100907.03;5131374;28;20039;-60
2022/01/17 02:32:59;;;;;;;5.68;4.38;;;;;;;20.56;26.50;100910.97;5131089;28;20519;-60
2022/01/17 02:35:25;;;;;;;5.32;3.80;;;;;;;20.56;26.65;100914.56;5131809;28;20039;-60
2022/01/17 02:37:51;;;;;;;5.78;4.15;;;;;;;20.54;26.56;100913.28;5131512;28;20506;-60
2022/01/17 02:40:18;;;;;;;5.40;4.30;;;;;;;20.54;26.51;100910.50;5131435;28;20039;-60
2022/01/17 02:42:49;;;;;;;5.70;4.55;;;;;;;20.53;26.57;100908.88;5131641;28;20533;-60
2022/01/17 02:45:32;;;;;;;5.43;4.18;;;;;;;20.70;26.40;100891.25;5131467;28;20147;-60
2022/01/17 02:47:59;;;;;;;5.97;4.25;;;;;;;21.75;25.36;100894.72;5131451;28;20054;-60
2022/01/17 02:50:25;;;;;;;6.18;4.43;;;;;;;22.63;24.03;100908.00;5131064;28;20124;-57
2022/01/17 02:52:51;;;;;;;6.15;4.85;;;;;;;23.00;23.68;100910.72;5130949;28;20078;-57
2022/01/17 02:55:16;;;;;;;4.90;3.80;;;;;;;22.80;23.98;100904.16;5130929;28;20107;-57
2022/01/17 02:57:41;;;;;;;4.47;3.53;;;;;;;22.55;24.29;100905.34;5130819;28;20058;-59
2022/01/17 03:00:10;;;;;;;4.95;3.72;;;;;;;22.30;24.52;100893.41;5130926;28;20035;-59
2022/01/17 03:02:36;;;;;;;5.50;4.05;;;;;;;22.07;25.05;100895.81;5130836;28;20064;-59
2022/01/17 03:05:07;;;;;;;5.18;4.07;;;;;;;21.85;25.03;100895.09;5130757;28;20055;-59
2022/01/17 03:07:33;;;;;;;5.45;4.20;;;;;;;21.68;25.32;100895.28;5111986;28;20058;-59
2022/01/17 03:10:03;;;;;;;6.00;4.50;;;;;;;21.57;25.42;100886.56;5130847;28;20035;-59
2022/01/17 03:12:30;;;;;;;5.75;4.38;;;;;;;21.45;25.39;100882.94;5130512;28;20043;-59
2022/01/17 03:14:55;;;;;;;5.90;4.18;;;;;;;21.35;25.69;100882.19;5130366;28;20114;-59
2022/01/17 03:17:21;;;;;;;6.07;4.38;;;;;;;21.26;25.78;100884.22;5130673;28;20169;-59
2022/01/17 03:19:46;;;;;;;6.40;4.80;;;;;;;21.18;25.75;100876.78;5130412;28;20442;-59
2022/01/17 03:22:11;;;;;;;5.63;4.30;;;;;;;21.11;25.68;100877.34;5130260;28;20126;-59
2022/01/17 03:24:37;;;;;;;4.97;3.90;;;;;;;21.06;25.83;100877.53;5130577;28;20502;-59
2022/01/17 03:27:02;;;;;;;5.45;4.03;;;;;;;21.02;25.90;100881.34;5130493;28;20043;-59
2022/01/17 03:29:28;;;;;;;5.35;4.30;;;;;;;20.96;25.94;100882.72;5130605;28;20114;-59
2022/01/17 03:31:53;;;;;;;5.15;4.28;;;;;;;20.92;26.20;100876.19;5130612;28;20200;-59
2022/01/17 03:34:19;;;;;;;5.82;4.63;;;;;;;20.86;26.04;100870.84;5130495;28;20046;-59
2022/01/17 03:36:44;;;;;;;5.72;4.25;;;;;;;20.83;26.09;100873.50;5130356;28;20039;-59
2022/01/17 03:39:10;;;;;;;5.20;4.28;;;;;;;20.80;26.13;100869.44;5130101;28;20062;-59
2022/01/17 03:41:36;;;;;;;5.18;4.20;;;;;;;20.78;26.23;100876.47;5129184;27;20394;-59
2022/01/17 03:44:02;;;;;;;5.88;4.72;;;;;;;20.78;26.31;100884.81;5129998;28;20135;-59
2022/01/17 03:46:28;;;;;;;5.55;4.75;;;;;;;21.10;25.92;100880.47;5130094;28;20126;-59
2022/01/17 03:48:53;;;;;;;5.75;4.43;;;;;;;21.69;25.21;100889.38;5130116;28;20058;-59
2022/01/17 03:51:19;;;;;;;5.80;4.60;;;;;;;22.45;24.12;100882.38;5130245;28;20384;-59
2022/01/17 03:53:44;;;;;;;5.50;4.40;;;;;;;23.25;23.51;100889.16;5130040;28;20093;-59
2022/01/17 03:56:10;;;;;;;5.25;4.00;;;;;;;23.16;23.80;100892.09;5130007;28;20043;-59
2022/01/17 03:58:35;;;;;;;5.68;3.97;;;;;;;22.88;23.75;100888.47;5130129;28;20062;-59
2022/01/17 04:01:02;;;;;;;5.45;3.78;;;;;;;22.61;24.09;100901.97;5129950;28;20081;-60
2022/01/17 04:03:27;;;;;;;4.78;3.50;;;;;;;22.36;24.32;100904.00;5129676;28;20063;-59
2022/01/17 04:05:54;;;;;;;5.13;4.00;;;;;;;22.14;24.72;100915.56;5129928;28;20131;-59
2022/01/17 04:08:20;;;;;;;5.20;4.07;;;;;;;21.94;25.01;100904.16;5129659;28;20054;-59
2022/01/17 04:10:45;;;;;;;5.57;4.13;;;;;;;21.78;25.08;100905.97;5129604;28;20495;-59
2022/01/17 04:13:11;;;;;;;4.68;3.67;;;;;;;21.64;25.23;100908.28;5129510;28;20071;-59
2022/01/17 04:15:38;;;;;;;5.40;4.10;;;;;;;21.53;25.39;100901.53;5129769;28;20049;-59
2022/01/17 04:18:05;;;;;;;5.50;4.43;;;;;;;21.43;25.56;100914.72;5129395;28;20039;-59
2022/01/17 04:20:32;;;;;;;5.50;4.32;;;;;;;21.32;25.53;100907.94;5129632;28;20564;-60
2022/01/17 04:23:02;;;;;;;5.63;4.30;;;;;;;21.26;25.54;100909.28;5129607;28;20104;-59
2022/01/17 04:25:30;;;;;;;5.05;4.22;;;;;;;21.19;25.81;100906.22;5129321;28;20059;-59
2022/01/17 04:27:57;;;;;;;5.45;4.25;;;;;;;21.12;25.69;100917.09;5129367;28;20046;-60
2022/01/17 04:30:24;;;;;;;5.10;3.88;;;;;;;21.06;25.93;100919.25;5129403;28;20672;-60
2022/01/17 04:32:50;;;;;;;5.65;4.40;;;;;;;21.01;25.81;100916.72;5129461;28;20050;-59
2022/01/17 04:35:21;;;;;;;5.57;4.10;;;;;;;20.97;26.03;100907.41;5129370;28;21027;-60
2022/01/17 04:37:57;;;;;;;6.03;4.65;;;;;;;20.92;25.85;100912.34;5129245;28;20112;-59
2022/01/17 04:40:24;;;;;;;5.30;3.95;;;;;;;20.89;26.07;100920.22;5129441;28;20384;-63
2022/01/17 04:42:54;;;;;;;6.40;4.88;;;;;;;20.86;26.09;100918.13;5128980;28;20031;-63
2022/01/17 04:45:20;;;;;;;5.78;4.20;;;;;;;20.83;26.24;100909.66;5129185;28;20498;-62
2022/01/17 04:47:51;;;;;;;5.75;4.32;;;;;;;20.79;26.29;100903.97;5129378;28;20054;-62
2022/01/17 04:50:26;;;;;;;5.50;4.35;;;;;;;20.77;26.29;100905.44;5129162;28;20043;-62
2022/01/17 04:52:55;;;;;;;5.75;4.63;;;;;;;20.76;26.28;100910.19;5128636;27;20042;-62
2022/01/17 04:55:22;;;;;;;6.13;4.53;;;;;;;20.73;26.19;100912.84;5128923;28;20058;-63
2022/01/17 04:57:48;;;;;;;6.22;4.50;;;;;;;20.71;26.40;100912.34;5128885;28;20392;-62
2022/01/17 05:00:17;;;;;;;5.72;4.30;;;;;;;20.68;26.15;100913.84;5129111;28;20444;-62
2022/01/17 05:02:43;;;;;;;5.22;4.03;;;;;;;20.68;26.48;100913.03;5129139;28;20044;-62
2022/01/17 05:05:10;;;;;;;5.78;4.65;;;;;;;20.66;26.20;100926.47;5128976;28;20051;-62
2022/01/17 05:07:36;;;;;;;5.63;4.30;;;;;;;20.64;26.33;100932.34;5129114;28;20116;-62
2022/01/17 05:10:05;;;;;;;5.05;4.00;;;;;;;20.63;26.51;100927.94;5128910;28;20065;-62
2022/01/17 05:12:31;;;;;;;5.70;4.25;;;;;;;20.63;26.44;100927.13;5128939;28;20051;-62
2022/01/17 05:14:58;;;;;;;5.60;4.20;;;;;;;20.56;26.46;100933.19;5129043;28;20039;-62
2022/01/17 05:19:49;;;;;;;5.57;4.15;;;;;;;20.57;26.57;100935.66;5128749;28;20476;-62
2022/01/17 05:22:19;;;;;;;5.25;4.10;;;;;;;20.58;26.49;100936.47;5129052;28;20151;-62
2022/01/17 05:24:44;;;;;;;5.28;4.20;;;;;;;20.55;26.32;100940.72;5128872;28;20434;-62
2022/01/17 05:27:10;;;;;;;5.47;4.32;;;;;;;20.56;26.48;100938.75;5128843;28;20611;-62
2022/01/17 05:29:35;;;;;;;5.80;4.13;;;;;;;20.55;26.55;100937.13;5128427;28;20045;-62
2022/01/17 05:32:01;;;;;;;4.80;3.85;;;;;;;20.54;26.36;100941.06;5128434;28;20054;-62
2022/01/17 05:34:27;;;;;;;5.50;4.38;;;;;;;20.53;26.49;100943.03;5117322;28;20050;-62
2022/01/17 05:36:52;;;;;;;6.35;4.90;;;;;;;20.69;26.02;100945.22;5108139;28;20124;-62
2022/01/17 05:39:17;;;;;;;6.93;5.35;;;;;;;21.33;25.35;100950.50;5108166;28;20036;-59
2022/01/17 05:41:43;;;;;;;5.85;4.53;;;;;;;22.31;24.38;100948.81;5108212;28;20101;-59
2022/01/17 05:44:08;;;;;;;6.88;5.05;;;;;;;22.93;23.60;100952.38;5108193;28;20138;-59
2022/01/17 05:46:34;;;;;;;5.30;4.10;;;;;;;22.77;23.96;100957.84;5108478;28;20214;-59
2022/01/17 05:49:00;;;;;;;4.80;3.60;;;;;;;22.52;24.32;100951.50;5108330;28;20142;-59
2022/01/17 05:51:25;;;;;;;4.47;3.65;;;;;;;22.29;24.50;100953.94;5108516;28;20048;-60
2022/01/17 05:53:51;;;;;;;5.32;4.00;;;;;;;22.07;24.67;100965.47;5108216;28;20072;-59
2022/01/17 05:56:16;;;;;;;4.85;3.83;;;;;;;21.87;24.97;100951.28;5108117;28;20032;-59
2022/01/17 05:58:42;;;;;;;4.45;3.58;;;;;;;21.73;25.06;100953.56;5108087;28;20092;-59
2022/01/17 06:01:08;;;;;;;5.60;4.35;;;;;;;21.57;25.13;100956.16;5108319;28;20039;-59
2022/01/17 06:03:33;;;;;;;5.30;4.50;;;;;;;21.44;25.07;100951.72;5108167;28;20125;-59
2022/01/17 06:05:59;;;;;;;5.00;4.03;;;;;;;21.37;25.41;100963.41;5111483;28;20047;-59
2022/01/17 06:08:24;;;;;;;4.80;3.58;;;;;;;21.28;25.54;100959.06;5111756;28;20039;-59
2022/01/17 06:10:50;;;;;;;5.28;4.00;;;;;;;21.22;25.71;100950.09;5111616;28;20134;-59
2022/01/17 06:13:15;;;;;;;5.25;3.80;;;;;;;21.16;25.60;100945.88;5111365;28;20036;-59
2022/01/17 06:15:41;;;;;;;4.75;3.58;;;;;;;21.09;25.77;100938.06;5111526;28;20074;-59
2022/01/17 06:18:06;;;;;;;5.40;4.35;;;;;;;21.05;25.91;100942.69;5111387;28;20040;-59
2022/01/17 06:20:32;;;;;;;5.00;4.03;;;;;;;21.01;25.91;100938.16;5111742;28;20070;-62
2022/01/17 06:22:57;;;;;;;7.35;4.00;;;;;;;21.01;26.16;100946.50;5112659;28;20047;-62
2022/01/17 06:25:23;;;;;;;5.53;4.25;;;;;;;20.98;25.86;100947.16;5111936;28;20085;-59
2022/01/17 06:27:48;;;;;;;5.50;3.58;;;;;;;20.95;26.35;100947.84;5111935;28;20055;-62
2022/01/17 06:30:14;;;;;;;5.47;4.03;;;;;;;20.94;26.28;100962.91;5111322;28;20411;-62
2022/01/17 06:32:40;;;;;;;5.00;3.80;;;;;;;20.90;26.20;100968.31;5111715;28;20131;-62
2022/01/17 06:35:06;;;;;;;5.13;4.05;;;;;;;20.87;26.12;100966.22;5111232;28;20028;-62
2022/01/17 06:37:31;;;;;;;7.05;4.25;;;;;;;20.84;26.35;100973.25;5091689;28;20052;-61
2022/01/17 06:39:57;;;;;;;4.40;3.63;;;;;;;20.82;26.20;100978.34;5111027;28;20515;-61
2022/01/17 06:42:23;;;;;;;5.60;4.07;;;;;;;20.81;26.35;100973.13;5110533;28;20532;-61
2022/01/17 06:44:50;;;;;;;4.97;4.00;;;;;;;20.77;26.20;100964.63;5110775;28;20082;-61
2022/01/17 06:47:15;;;;;;;6.47;4.53;;;;;;;20.77;26.10;100972.97;5111181;28;20048;-61
2022/01/17 06:49:41;;;;;;;6.13;4.22;;;;;;;20.75;26.30;100969.72;5110616;28;20041;-61
2022/01/17 06:52:07;;;;;;;5.50;4.20;;;;;;;20.74;26.22;100972.84;5110460;28;20411;-61
2022/01/17 06:54:32;;;;;;;5.47;4.13;;;;;;;20.73;26.32;100983.16;5110409;28;20118;-61
2022/01/17 06:56:58;;;;;;;5.10;3.80;;;;;;;20.72;26.34;100989.88;5110515;28;20126;-61
2022/01/17 06:59:23;;;;;;;4.90;3.90;;;;;;;20.70;26.21;100986.59;5110271;28;20044;-61
2022/01/17 07:01:49;;;;;;;5.30;3.83;;;;;;;20.71;26.18;100979.88;5110248;28;20067;-61
2022/01/17 07:04:14;;;;;;;5.47;3.95;;;;;;;20.69;26.25;100984.97;5110341;28;20040;-61
2022/01/17 07:06:40;;;;;;;6.28;4.28;;;;;;;20.70;26.42;100986.59;5110183;28;20054;-62
2022/01/17 07:09:09;;;;;;;5.40;3.85;;;;;;;20.68;26.35;100977.78;5110205;28;20046;-62
2022/01/17 07:11:39;;;;;;;4.97;3.67;;;;;;;20.68;26.17;100975.00;5110196;28;20039;-62
2022/01/17 07:14:11;;;;;;;4.75;3.95;;;;;;;20.67;26.11;100980.91;5110091;28;20059;-62
2022/01/17 07:16:38;;;;;;;5.28;3.95;;;;;;;20.66;26.25;100968.97;5110092;28;20054;-62
2022/01/17 07:19:04;;;;;;;5.15;3.83;;;;;;;20.65;26.19;100964.56;5110100;28;20043;-62
2022/01/17 07:21:30;;;;;;;4.60;3.70;;;;;;;20.65;26.11;100959.00;5110103;28;20132;-62
2022/01/17 07:23:56;;;;;;;5.72;4.20;;;;;;;20.65;26.33;100952.63;5109695;28;20077;-62
2022/01/17 07:26:21;;;;;;;5.57;4.10;;;;;;;20.64;26.19;100950.97;5110100;28;20048;-62
2022/01/17 07:28:47;;;;;;;5.45;4.18;;;;;;;20.64;26.29;100950.97;5110059;28;20036;-62
2022/01/17 07:31:12;;;;;;;5.88;3.72;;;;;;;20.63;26.19;100961.28;5110115;28;20483;-62
2022/01/17 07:33:38;;;;;;;5.53;4.00;;;;;;;20.63;26.29;100968.81;5107465;28;20475;-62
2022/01/17 07:36:07;;;;;;;5.10;4.05;;;;;;;20.62;26.22;100987.47;5089221;28;20087;-61
2022/01/17 07:38:34;;;;;;;4.78;3.80;;;;;;;20.60;26.29;100984.22;5089551;28;20076;-62
2022/01/17 07:40:59;;;;;;;5.28;3.97;;;;;;;20.61;26.90;101010.84;5097670;28;20039;-62
2022/01/17 07:43:25;;;;;;;5.57;4.35;;;;;;;20.68;27.14;101029.81;5108976;28;20545;-62
2022/01/17 07:46:04;;;;;;;5.70;4.43;;;;;;;20.72;27.03;101058.59;5111356;28;20130;-62
2022/01/17 07:51:16;;;;;;;4.75;3.78;;;;;;;20.88;27.00;101074.34;5109130;28;20518;-59
2022/01/17 07:53:41;;;;;;;5.40;3.83;;;;;;;20.85;26.76;101069.44;5108478;28;20048;-60
2022/01/17 07:56:07;;;;;;;5.45;3.92;;;;;;;20.82;27.12;101045.09;5092812;28;20127;-75
2022/01/17 07:58:32;;;;;;;4.95;4.07;;;;;;;20.92;27.23;101031.94;5097039;28;20044;-59
2022/01/17 08:00:58;;;;;;;5.25;3.63;;;;;;;20.92;27.27;101029.16;5096572;28;20055;-59
2022/01/17 08:03:24;;;;;;;5.05;3.92;;;;;;;20.90;27.28;101015.59;5090783;28;20058;-58
2022/01/17 08:05:49;;;;;;;6.10;4.40;;;;;;;20.93;27.33;101022.44;5096730;28;20077;-58
2022/01/17 08:08:14;;;;;;;5.47;3.92;;;;;;;20.93;27.24;101020.47;5107443;28;20410;-58
2022/01/17 08:10:40;;;;;;;5.50;3.70;;;;;;;20.95;27.61;101020.16;5108772;28;20063;-66
2022/01/17 08:13:05;;;;;;;4.93;3.63;;;;;;;21.01;27.35;101027.97;5096158;28;20475;-59
2022/01/17 08:15:31;;;;;;;5.15;3.78;;;;;;;21.07;27.25;101028.56;5093476;28;20040;-59
2022/01/17 08:17:57;;;;;;;5.57;3.47;;;;;;;21.08;27.37;101033.84;5103138;28;20048;-59
2022/01/17 08:20:23;;;;;;;9.00;3.70;;;;;;;21.08;27.50;101035.81;5103124;28;20458;-59
2022/01/17 08:22:48;;;;;;;5.90;3.53;;;;;;;21.06;27.64;101024.16;5105774;28;20056;-59
2022/01/17 08:25:15;;;;;;;4.97;3.75;;;;;;;21.05;27.41;101022.53;5101460;28;20104;-59
2022/01/17 08:27:42;;;;;;;5.10;3.90;;;;;;;21.03;27.42;101030.44;5101989;28;20040;-59
2022/01/17 08:30:08;;;;;;;5.72;3.97;;;;;;;20.99;27.34;101026.66;5105870;28;20047;-59
2022/01/17 08:32:34;;;;;;;5.25;4.03;;;;;;;20.98;27.20;101027.81;5102023;28;20037;-70
2022/01/17 08:35:00;;;;;;;5.78;4.20;;;;;;;20.99;27.28;101035.00;5107312;28;20416;-59
2022/01/17 08:37:26;;;;;;;4.68;3.60;;;;;;;20.96;27.24;101036.50;5098059;28;20104;-59
2022/01/17 08:39:52;;;;;;;5.15;3.83;;;;;;;20.98;27.33;101041.75;5098387;28;20032;-59
2022/01/17 08:42:22;;;;;;;5.95;4.00;;;;;;;20.97;27.43;101031.75;5101947;28;20047;-63
2022/01/17 08:44:50;;;;;;;5.32;3.53;;;;;;;20.96;27.46;101033.72;5101659;28;20051;-63
2022/01/17 08:47:19;;;;;;;5.10;4.00;;;;;;;20.97;27.38;101032.59;5105517;28;20495;-62
2022/01/17 08:49:47;;;;;;;6.32;4.43;;;;;;;20.96;27.31;101044.06;5098936;28;20051;-62
2022/01/17 08:52:15;;;;;;;6.75;4.80;;;;;;;20.93;27.41;101037.16;5106965;28;20044;-62
2022/01/17 08:54:40;;;;;;;7.05;4.30;;;;;;;20.92;27.41;101041.09;5097819;28;20836;-64
2022/01/17 08:57:06;;;;;;;10.38;5.00;;;;;;;20.86;27.35;101034.13;5099205;28;20058;-61
2022/01/17 08:59:31;;;;;;;12.20;7.10;;;;;;;20.84;27.45;101023.31;5102621;28;20120;-58
2022/01/17 09:01:57;;;;;;;7.93;5.70;;;;;;;20.83;27.49;101020.88;5100598;28;20460;-59
2022/01/17 09:04:23;;;;;;;5.97;4.65;;;;;;;20.81;27.29;101010.09;5101098;28;20087;-59
2022/01/17 09:06:48;;;;;;;6.50;4.70;;;;;;;20.76;27.50;100988.03;5104280;28;20073;-59
2022/01/17 09:09:16;;;;;;;6.88;4.50;;;;;;;20.77;27.32;100988.84;5102940;28;20054;-59
2022/01/17 09:11:42;;;;;;;6.05;4.53;;;;;;;20.75;27.39;100986.41;5103216;28;20407;-59
2022/01/17 09:14:08;;;;;;;7.45;5.10;;;;;;;20.76;27.26;100987.22;5093419;28;20046;-59
2022/01/17 09:16:33;;;;;;;5.78;4.03;;;;;;;20.78;27.15;100982.13;5099493;28;20044;-59
2022/01/17 09:19:01;;;;;;;5.70;4.50;;;;;;;20.74;27.46;100976.44;5097567;28;20048;-59
2022/01/17 09:21:26;;;;;;;5.72;4.13;;;;;;;20.76;27.22;100976.91;5101436;28;20051;-60
2022/01/17 09:23:54;;;;;;;5.57;4.35;;;;;;;20.93;27.14;100981.53;5101227;28;20039;-60
2022/01/17 09:26:23;;;;;;;7.40;4.32;;;;;;;20.93;27.27;100986.28;5102219;28;20039;-60
2022/01/17 09:28:49;;;;;;;5.60;4.05;;;;;;;20.93;27.02;100991.84;5080797;28;20507;-58
2022/01/17 09:31:16;;;;;;;6.22;3.97;;;;;;;20.93;27.14;100980.72;5103408;28;20031;-61
2022/01/17 09:33:46;;;;;;;6.15;4.45;;;;;;;20.94;27.29;100983.19;5105082;28;20065;-62
2022/01/17 09:36:12;;;;;;;5.90;4.38;;;;;;;20.92;27.08;100981.88;5101135;28;20068;-62
2022/01/17 09:38:37;;;;;;;5.50;3.90;;;;;;;20.89;27.00;100992.53;5102571;28;20533;-62
2022/01/17 09:41:03;;;;;;;6.03;4.18;;;;;;;20.89;27.17;101008.41;5106932;28;20043;-62
2022/01/17 09:43:29;;;;;;;5.65;4.20;;;;;;;20.88;27.07;101018.72;5104954;28;20051;-62
2022/01/17 09:45:56;;;;;;;4.93;4.00;;;;;;;20.86;27.03;101031.34;5103546;28;20422;-62
2022/01/17 09:48:23;;;;;;;6.30;4.40;;;;;;;20.83;27.27;101063.41;5099012;28;20066;-62
2022/01/17 09:51:14;;;;;;;5.57;4.13;;;;;;;20.83;27.18;101070.94;5103682;28;20051;-62
2022/01/17 09:53:41;;;;;;;6.47;4.25;;;;;;;20.82;27.29;101074.88;5099894;28;20051;-60
2022/01/17 09:56:10;;;;;;;8.43;4.72;;;;;;;20.82;27.29;101064.56;5105570;28;20047;-59
2022/01/17 09:58:38;;;;;;;8.90;4.47;;;;;;;20.78;27.29;101041.34;5107641;28;20047;-59
2022/01/17 10:01:04;;;;;;;10.32;5.40;;;;;;;20.79;27.32;101050.53;5096607;28;20138;-59
2022/01/17 10:03:30;;;;;;;7.13;5.22;;;;;;;20.80;27.55;101066.06;5103008;28;20035;-58
2022/01/17 10:05:56;;;;;;;9.10;4.90;;;;;;;20.80;27.46;101039.06;5102134;28;20044;-59
2022/01/17 10:08:22;;;;;;;7.50;4.95;;;;;;;20.79;27.36;101045.78;5098401;28;20039;-59
2022/01/17 10:11:04;;;;;;;7.10;4.65;;;;;;;20.78;27.55;101066.38;5103619;28;20516;-59
2022/01/17 10:13:37;;;;;;;8.27;5.15;;;;;;;20.78;27.57;101037.75;5104061;28;20044;-62
2022/01/17 10:16:06;;;;;;;7.60;4.55;;;;;;;20.77;27.63;101067.53;5099789;28;20044;-62
2022/01/17 10:18:35;;;;;;;7.95;4.70;;;;;;;20.76;27.42;101065.91;5105621;28;20114;-60
2022/01/17 10:21:09;;;;;;;10.18;4.80;;;;;;;20.76;27.49;101070.66;5101774;28;20127;-61
2022/01/17 10:36:55;;;;;;;7.88;4.70;;;;;;;20.75;27.61;101085.72;5099932;28;20104;-60
2022/01/17 10:39:21;;;;;;;8.43;5.13;;;;;;;20.75;27.48;101071.81;5097594;28;20051;-61
2022/01/17 10:41:46;;;;;;;12.70;5.85;;;;;;;20.77;27.65;101083.41;5105938;28;20040;-62
2022/01/17 10:44:32;;;;;;;12.45;6.18;;;;;;;20.78;27.48;101071.94;5104585;28;20831;-65
2022/01/17 10:47:22;;;;;;;12.43;6.18;;;;;;;20.78;27.47;101060.81;5102451;28;20044;-65
2022/01/17 10:49:52;;;;;;;9.18;5.55;;;;;;;20.80;27.54;101069.66;5103592;28;20055;-68
2022/01/17 10:52:35;;;;;;;14.50;6.65;;;;;;;20.89;27.63;101069.59;5103280;28;20043;-65
2022/01/17 10:55:12;;;;;;;17.95;7.53;;;;;;;20.98;27.59;101066.78;5103499;28;20126;-64
2022/01/17 10:57:40;;;;;;;14.88;6.80;;;;;;;21.07;27.42;101065.56;5103479;28;20104;-63
2022/01/17 11:00:31;;;;;;;14.95;7.40;;;;;;;21.14;27.28;101056.69;5102016;28;20044;-65
2022/01/17 11:03:02;;;;;;;13.95;5.88;;;;;;;21.16;27.42;101049.66;5092026;28;20062;-67
2022/01/17 11:05:28;;;;;;;12.05;5.90;;;;;;;21.17;27.21;101045.72;5100135;28;20051;-66
2022/01/17 11:07:58;;;;;;;11.68;6.10;;;;;;;21.12;27.46;101045.91;5078148;28;20748;-66
2022/01/17 11:10:26;;;;;;;30.85;15.75;;;;;;;21.10;26.96;101034.28;5098635;28;20060;-64
2022/01/17 11:12:55;;;;;;;56.88;34.05;;;;;;;20.97;26.82;101032.59;5100721;28;20507;-67
2022/01/17 11:15:22;;;;;;;74.65;41.80;;;;;;;20.94;26.73;101038.00;5106209;28;20420;-67
2022/01/17 11:17:51;;;;;;;71.78;40.45;;;;;;;20.92;26.73;101037.50;5101676;28;20453;-65
2022/01/17 11:20:19;;;;;;;45.83;27.63;;;;;;;20.89;27.23;101036.22;5109182;28;20526;-68
2022/01/17 11:22:47;;;;;;;37.85;21.05;;;;;;;20.86;27.12;101031.34;5101314;28;20404;-58
2022/01/17 11:25:21;;;;;;;27.90;16.73;;;;;;;20.85;27.01;101024.94;5105798;28;20167;-58
2022/01/17 11:27:48;;;;;;;23.52;14.98;;;;;;;20.84;27.23;101028.06;5099162;28;20073;-58
2022/01/17 11:30:16;;;;;;;21.52;14.73;;;;;;;20.86;27.45;101025.78;5105991;28;20055;-58
2022/01/17 11:32:42;;;;;;;21.42;12.60;;;;;;;20.84;27.56;101009.41;5105165;28;20142;-58
2022/01/17 11:35:08;;;;;;;22.77;12.68;;;;;;;20.85;27.42;100994.34;5082615;28;20131;-58
2022/01/17 11:37:40;;;;;;;19.88;11.90;;;;;;;20.84;27.43;100980.78;5104826;28;20069;-58
2022/01/17 11:40:08;;;;;;;18.90;11.73;;;;;;;20.86;27.44;100973.75;5096625;28;20048;-58
2022/01/17 11:42:46;;;;;;;18.02;11.20;;;;;;;20.85;27.59;100962.94;5093670;28;20056;-58
2022/01/17 11:45:21;;;;;;;20.80;10.52;;;;;;;20.85;27.59;100949.84;5098524;28;20047;-60
2022/01/17 11:47:53;;;;;;;14.73;10.35;;;;;;;20.86;27.25;100943.16;5104652;28;20198;-59
2022/01/17 11:50:31;;;;;;;17.48;9.77;;;;;;;20.84;27.42;100945.44;5104977;28;20479;-59
2022/01/17 11:53:00;;;;;;;16.75;9.02;;;;;;;20.80;27.20;100954.81;5098124;28;20055;-59
2022/01/17 11:55:44;;;;;;;11.65;8.13;;;;;;;20.80;27.38;100961.19;5102001;28;20042;-60